createdAt,value
2019-06-15T00:01:56.629Z,23.13
2019-06-15T00:04:26.672Z,23.09
2019-06-15T00:06:56.855Z,23.06
2019-06-15T00:09:27.098Z,23.01
2019-06-15T00:11:57.103Z,22.93
2019-06-15T00:14:27.155Z,22.83
2019-06-15T00:16:57.526Z,22.72
2019-06-15T00:19:27.291Z,22.62
2019-06-15T00:21:57.388Z,22.56
2019-06-15T00:24:35.262Z,22.54
2019-06-15T00:26:58.710Z,22.48
2019-06-15T00:29:28.157Z,22.42
2019-06-15T00:31:58.073Z,22.37
2019-06-15T00:34:28.446Z,22.33
2019-06-15T00:36:58.147Z,22.28
2019-06-15T00:39:28.705Z,22.26
2019-06-15T00:41:58.333Z,22.25
2019-06-15T00:44:28.383Z,22.25
2019-06-15T00:46:58.508Z,22.25
2019-06-15T00:49:28.655Z,22.25
2019-06-15T00:51:58.788Z,22.26
2019-06-15T00:54:29.013Z,22.27
2019-06-15T00:56:59.257Z,22.26
2019-06-15T00:59:29.538Z,22.27
2019-06-15T01:01:59.545Z,22.27
2019-06-15T01:04:29.840Z,22.27
2019-06-15T01:06:59.825Z,22.27
2019-06-15T01:09:29.962Z,22.25
2019-06-15T01:12:00.355Z,22.21
2019-06-15T01:14:30.464Z,22.18
2019-06-15T01:17:00.145Z,22.15
2019-06-15T01:19:30.306Z,22.12
2019-06-15T01:22:00.404Z,22.11
2019-06-15T01:24:30.417Z,22.13
2019-06-15T01:27:00.456Z,22.12
2019-06-15T01:29:30.470Z,22.11
2019-06-15T01:32:00.587Z,22.09
2019-06-15T01:34:30.606Z,22.10
2019-06-15T01:37:00.796Z,22.12
2019-06-15T01:39:30.760Z,22.13
2019-06-15T01:42:01.110Z,22.16
2019-06-15T01:44:30.968Z,22.18
2019-06-15T01:47:01.288Z,22.20
2019-06-15T01:49:31.103Z,22.20
2019-06-15T01:52:01.321Z,22.20
2019-06-15T01:54:31.797Z,22.20
2019-06-15T02:00:49.359Z,22.01
2019-06-15T02:03:19.274Z,22.01
2019-06-15T02:05:48.847Z,22.03
2019-06-15T02:08:18.609Z,22.06
2019-06-15T02:10:48.021Z,22.08
2019-06-15T02:13:17.403Z,22.09
2019-06-15T02:15:46.803Z,22.08
2019-06-15T02:18:16.223Z,22.08
2019-06-15T02:20:45.638Z,22.09
2019-06-15T02:23:15.052Z,22.09
2019-06-15T02:25:44.735Z,22.09
2019-06-15T02:28:14.145Z,22.09
2019-06-15T02:30:43.748Z,22.08
2019-06-15T02:33:13.543Z,22.10
2019-06-15T02:35:44.300Z,22.10
2019-06-15T02:38:13.722Z,22.08
2019-06-15T02:40:43.265Z,22.07
2019-06-15T02:43:12.691Z,22.05
2019-06-15T02:45:42.411Z,22.04
2019-06-15T02:48:13.012Z,22.03
2019-06-15T02:50:43.046Z,22.02
2019-06-15T02:53:13.082Z,22.02
2019-06-15T02:55:50.595Z,22.00
2019-06-15T02:58:14.471Z,22.00
2019-06-15T03:01:00.591Z,21.97
2019-06-15T03:03:30.319Z,21.93
2019-06-15T03:06:00.387Z,21.86
2019-06-15T03:08:30.342Z,21.83
2019-06-15T03:10:59.821Z,21.78
2019-06-15T03:13:29.957Z,21.75
2019-06-15T03:15:59.672Z,21.71
2019-06-15T03:18:29.485Z,21.67
2019-06-15T03:20:58.875Z,21.65
2019-06-15T03:23:28.282Z,21.63
2019-06-15T03:26:05.563Z,21.62
2019-06-15T03:28:28.884Z,21.62
2019-06-15T03:30:58.689Z,21.62
2019-06-15T03:33:28.701Z,21.63
2019-06-15T03:35:58.056Z,21.64
2019-06-15T03:38:27.456Z,21.65
2019-06-15T03:40:57.190Z,21.65
2019-06-15T03:43:26.580Z,21.64
2019-06-15T03:45:56.276Z,21.65
2019-06-15T03:48:25.702Z,21.66
2019-06-15T03:50:55.421Z,21.66
2019-06-15T03:53:25.684Z,21.63
2019-06-15T03:55:55.161Z,21.63
2019-06-15T03:58:24.695Z,21.58
2019-06-15T04:01:10.337Z,21.53
2019-06-15T04:03:39.814Z,21.48
2019-06-15T04:06:09.223Z,21.44
2019-06-15T04:08:38.659Z,21.45
2019-06-15T04:11:08.065Z,21.43
2019-06-15T04:13:37.475Z,21.43
2019-06-15T04:16:07.268Z,21.45
2019-06-15T04:18:36.696Z,21.48
2019-06-15T04:21:06.154Z,21.46
2019-06-15T04:23:35.628Z,21.46
2019-06-15T04:26:05.159Z,21.47
2019-06-15T04:28:34.590Z,21.45
2019-06-15T04:31:04.043Z,21.45
2019-06-15T04:33:33.534Z,21.45
2019-06-15T04:36:02.970Z,21.44
2019-06-15T04:38:32.706Z,21.42
2019-06-15T04:41:02.370Z,21.42
2019-06-15T04:43:31.785Z,21.41
2019-06-15T04:46:01.366Z,21.42
2019-06-15T04:48:30.839Z,21.43
2019-06-15T04:51:00.598Z,21.45
2019-06-15T04:53:30.280Z,21.47
2019-06-15T04:55:59.754Z,21.51
2019-06-15T04:58:29.251Z,21.55
2019-06-15T05:00:58.648Z,21.60
2019-06-15T05:03:28.127Z,21.64
2019-06-15T05:05:57.929Z,21.70
2019-06-15T05:08:27.434Z,21.74
2019-06-15T05:10:59.711Z,21.77
2019-06-15T05:13:28.594Z,21.81
2019-06-15T05:15:58.048Z,21.81
2019-06-15T05:18:27.453Z,21.84
2019-06-15T05:20:57.186Z,21.85
2019-06-15T05:23:26.600Z,21.87
2019-06-15T05:25:56.052Z,21.91
2019-06-15T05:28:25.577Z,21.94
2019-06-15T05:30:54.980Z,21.96
2019-06-15T05:33:24.611Z,22.01
2019-06-15T05:35:54.039Z,22.06
2019-06-15T05:38:23.437Z,22.11
2019-06-15T05:40:53.308Z,22.18
2019-06-15T05:43:22.737Z,22.26
2019-06-15T05:45:52.212Z,22.34
2019-06-15T05:48:21.635Z,22.40
2019-06-15T05:50:51.053Z,22.45
2019-06-15T05:53:20.802Z,22.48
2019-06-15T05:55:50.538Z,22.50
2019-06-15T05:58:20.396Z,22.53
2019-06-15T06:00:50.393Z,22.56
2019-06-15T06:03:20.479Z,22.57
2019-06-15T06:05:50.391Z,22.60
2019-06-15T06:08:20.814Z,22.62
2019-06-15T06:10:50.913Z,22.64
2019-06-15T06:13:21.077Z,22.65
2019-06-15T06:15:50.814Z,22.69
2019-06-15T06:18:21.391Z,22.75
2019-06-15T06:20:51.300Z,22.82
2019-06-15T06:23:21.646Z,22.89
2019-06-15T06:25:51.617Z,22.94
2019-06-15T06:28:21.583Z,22.97
2019-06-15T06:30:51.734Z,22.98
2019-06-15T06:33:21.930Z,23.02
2019-06-15T06:35:52.071Z,23.04
2019-06-15T06:38:22.247Z,23.09
2019-06-15T06:40:53.400Z,23.15
2019-06-15T06:43:23.020Z,23.24
2019-06-15T06:45:53.314Z,23.28
2019-06-15T06:48:24.726Z,23.34
2019-06-15T06:50:54.706Z,23.46
2019-06-15T06:53:27.749Z,23.56
2019-06-15T06:56:01.761Z,23.67
2019-06-15T06:58:33.247Z,23.72
2019-06-15T07:08:48.077Z,23.72
2019-06-15T07:11:38.280Z,23.72
2019-06-15T07:14:36.310Z,23.76
2019-06-15T07:17:26.477Z,23.86
2019-06-15T07:19:51.058Z,23.94
2019-06-15T07:22:19.688Z,24.02
2019-06-15T07:24:49.591Z,24.11
2019-06-15T07:27:19.108Z,24.23
2019-06-15T07:29:48.727Z,24.31
2019-06-15T07:32:18.176Z,24.44
2019-06-15T07:34:48.055Z,24.65
2019-06-15T07:37:17.480Z,24.99
2019-06-15T07:39:46.950Z,25.34
2019-06-15T07:42:16.352Z,25.76
2019-06-15T07:44:46.043Z,26.29
2019-06-15T07:47:15.721Z,26.92
2019-06-15T07:49:45.206Z,27.62
2019-06-15T07:52:14.934Z,28.30
2019-06-15T07:54:44.438Z,28.94
2019-06-15T07:57:14.286Z,29.58
2019-06-15T07:59:44.236Z,30.27
2019-06-15T08:02:13.629Z,30.92
2019-06-15T08:04:43.322Z,31.53
2019-06-15T08:07:12.724Z,32.12
2019-06-15T08:09:42.425Z,32.66
2019-06-15T08:12:11.815Z,33.11
2019-06-15T08:14:41.254Z,33.53
2019-06-15T08:17:10.642Z,33.85
2019-06-15T08:19:40.077Z,34.06
2019-06-15T08:22:09.478Z,34.33
2019-06-15T08:24:38.899Z,34.56
2019-06-15T08:27:08.325Z,34.89
2019-06-15T08:29:37.962Z,35.30
2019-06-15T08:32:07.510Z,35.79
2019-06-15T08:34:36.935Z,36.34
2019-06-15T08:37:06.594Z,36.84
2019-06-15T08:39:36.070Z,37.35
2019-06-15T08:42:05.607Z,37.80
2019-06-15T08:44:35.058Z,38.19
2019-06-15T08:47:05.733Z,38.60
2019-06-15T08:49:35.227Z,38.91
2019-06-15T08:52:04.615Z,39.17
2019-06-15T08:54:34.020Z,39.27
2019-06-15T08:57:03.866Z,39.18
2019-06-15T08:59:33.380Z,39.15
2019-06-15T09:02:02.805Z,39.05
2019-06-15T09:04:32.546Z,38.85
2019-06-15T09:07:02.312Z,38.40
2019-06-15T09:09:32.020Z,37.97
2019-06-15T09:12:01.809Z,37.70
2019-06-15T09:14:31.229Z,37.69
2019-06-15T09:17:00.620Z,37.85
2019-06-15T09:19:30.133Z,37.76
2019-06-15T09:22:00.273Z,37.46
2019-06-15T09:24:30.130Z,37.04
2019-06-15T09:27:00.172Z,36.51
2019-06-15T09:29:30.221Z,35.98
2019-06-15T09:32:00.387Z,35.44
2019-06-15T09:34:30.354Z,34.91
2019-06-15T09:37:00.766Z,34.39
2019-06-15T09:39:30.872Z,33.90
2019-06-15T09:42:00.890Z,33.43
2019-06-15T09:44:30.739Z,33.00
2019-06-15T09:47:01.017Z,32.58
2019-06-15T09:49:31.039Z,32.20
2019-06-15T09:52:01.263Z,31.83
2019-06-15T09:54:31.570Z,31.44
2019-06-15T09:57:01.725Z,31.13
2019-06-15T09:59:31.797Z,30.91
2019-06-15T10:02:01.690Z,30.76
2019-06-15T10:04:31.806Z,30.63
2019-06-15T10:07:02.680Z,30.46
2019-06-15T10:09:32.209Z,30.29
2019-06-15T10:12:02.580Z,30.12
2019-06-15T10:14:32.133Z,30.05
2019-06-15T10:17:02.412Z,30.14
2019-06-15T10:19:32.179Z,30.54
2019-06-15T10:22:02.305Z,31.26
2019-06-15T10:24:32.648Z,31.96
2019-06-15T10:27:02.779Z,32.48
2019-06-15T10:29:41.698Z,32.74
2019-06-15T10:32:03.715Z,32.83
2019-06-15T10:34:33.201Z,32.77
2019-06-15T10:37:02.795Z,32.65
2019-06-15T10:39:32.793Z,32.53
2019-06-15T10:42:03.066Z,32.37
2019-06-15T10:44:33.073Z,32.19
2019-06-15T10:47:03.104Z,32.03
2019-06-15T10:49:33.208Z,31.87
2019-06-15T10:52:03.484Z,31.67
2019-06-15T10:54:33.516Z,31.54
2019-06-15T10:57:04.012Z,31.47
2019-06-15T10:59:33.983Z,31.46
2019-06-15T11:02:04.165Z,31.42
2019-06-15T11:04:34.552Z,31.33
2019-06-15T11:07:04.955Z,31.31
2019-06-15T11:09:34.419Z,31.42
2019-06-15T11:12:04.800Z,31.67
2019-06-15T11:14:35.099Z,32.03
2019-06-15T11:17:05.294Z,32.36
2019-06-15T11:19:34.965Z,32.71
2019-06-15T11:22:05.222Z,32.88
2019-06-15T11:24:35.634Z,32.89
2019-06-15T11:27:05.889Z,32.93
2019-06-15T11:29:35.761Z,33.02
2019-06-15T11:32:05.508Z,33.12
2019-06-15T11:34:36.005Z,33.35
2019-06-15T11:37:06.183Z,33.57
2019-06-15T11:39:35.886Z,33.64
2019-06-15T11:42:06.340Z,33.59
2019-06-15T11:44:36.989Z,33.45
2019-06-15T11:47:06.479Z,33.27
2019-06-15T11:49:36.659Z,33.07
2019-06-15T11:52:06.482Z,32.84
2019-06-15T11:54:36.974Z,32.56
2019-06-15T11:57:07.127Z,32.26
2019-06-15T11:59:37.386Z,32.01
2019-06-15T12:02:07.123Z,31.84
2019-06-15T12:04:37.465Z,31.80
2019-06-15T12:07:07.883Z,31.84
2019-06-15T12:09:37.515Z,31.88
2019-06-15T12:12:07.894Z,31.89
2019-06-15T12:14:38.179Z,31.84
2019-06-15T12:17:07.984Z,31.77
2019-06-15T12:19:38.162Z,31.75
2019-06-15T12:22:08.092Z,31.79
2019-06-15T12:24:38.106Z,31.85
2019-06-15T12:27:08.345Z,31.95
2019-06-15T12:29:38.543Z,32.01
2019-06-15T12:32:08.949Z,32.03
2019-06-15T12:34:41.937Z,32.10
2019-06-15T12:37:11.400Z,32.16
2019-06-15T12:39:42.112Z,32.22
2019-06-15T12:42:11.904Z,32.24
2019-06-15T12:44:41.640Z,32.25
2019-06-15T12:47:11.445Z,32.25
2019-06-15T12:49:41.189Z,32.30
2019-06-15T12:52:10.940Z,32.38
2019-06-15T12:54:40.588Z,32.45
2019-06-15T12:57:10.251Z,32.47
2019-06-15T12:59:40.440Z,32.55
2019-06-15T13:02:10.497Z,32.66
2019-06-15T13:04:40.532Z,32.74
2019-06-15T13:07:10.654Z,32.81
2019-06-15T13:09:40.762Z,32.88
2019-06-15T13:12:10.913Z,32.94
2019-06-15T13:14:40.967Z,32.94
2019-06-15T13:17:11.120Z,32.92
2019-06-15T13:19:41.268Z,32.87
2019-06-15T13:22:11.444Z,32.79
2019-06-15T13:24:41.599Z,32.69
2019-06-15T13:27:11.858Z,32.62
2019-06-15T13:29:41.772Z,32.56
2019-06-15T13:32:12.005Z,32.51
2019-06-15T13:34:42.015Z,32.51
2019-06-15T13:37:12.406Z,32.54
2019-06-15T13:39:42.255Z,32.59
2019-06-15T13:42:12.445Z,32.61
2019-06-15T13:44:42.765Z,32.65
2019-06-15T13:47:12.905Z,32.66
2019-06-15T13:49:43.074Z,32.66
2019-06-15T13:52:12.981Z,32.65
2019-06-15T13:54:43.507Z,32.62
2019-06-15T13:57:13.219Z,32.58
2019-06-15T13:59:43.360Z,32.52
2019-06-15T14:02:13.440Z,32.46
2019-06-15T14:04:43.907Z,32.43
2019-06-15T14:07:13.918Z,32.42
2019-06-15T14:09:44.296Z,32.38
2019-06-15T14:12:14.007Z,32.30
2019-06-15T14:14:44.383Z,32.25
2019-06-15T14:17:14.250Z,32.21
2019-06-15T14:19:44.748Z,32.15
2019-06-15T14:22:14.731Z,32.10
2019-06-15T14:24:44.869Z,32.08
2019-06-15T14:27:14.714Z,32.07
2019-06-15T14:29:44.987Z,32.04
2019-06-15T14:32:14.954Z,32.04
2019-06-15T14:34:45.339Z,32.06
2019-06-15T14:37:15.122Z,32.10
2019-06-15T14:39:45.593Z,32.12
2019-06-15T14:42:15.474Z,32.11
2019-06-15T14:44:45.346Z,32.10
2019-06-15T14:47:15.437Z,32.12
2019-06-15T14:49:45.985Z,32.13
2019-06-15T14:52:15.734Z,32.16
2019-06-15T14:54:46.093Z,32.18
2019-06-15T14:57:16.249Z,32.22
2019-06-15T14:59:59.376Z,32.23
2019-06-15T15:02:20.015Z,32.22
2019-06-15T15:04:49.496Z,32.22
2019-06-15T15:07:18.895Z,32.21
2019-06-15T15:09:50.023Z,32.20
2019-06-15T15:12:19.930Z,32.20
2019-06-15T15:14:49.392Z,32.22
2019-06-15T15:17:18.815Z,32.22
2019-06-15T15:19:48.210Z,32.20
2019-06-15T15:22:17.840Z,32.23
2019-06-15T15:24:47.606Z,32.27
2019-06-15T15:27:17.403Z,32.26
2019-06-15T15:29:47.128Z,32.25
2019-06-15T15:32:27.445Z,32.25
2019-06-15T15:34:48.865Z,32.21
2019-06-15T15:37:18.421Z,32.14
2019-06-15T15:39:48.081Z,32.04
2019-06-15T15:42:18.051Z,31.94
2019-06-15T15:44:47.752Z,31.84
2019-06-15T15:47:17.952Z,31.75
2019-06-15T15:49:48.361Z,31.64
2019-06-15T15:52:18.156Z,31.54
2019-06-15T15:54:48.316Z,31.41
2019-06-15T15:57:19.590Z,31.27
2019-06-15T15:59:49.241Z,31.16
2019-06-15T16:02:18.973Z,31.09
2019-06-15T16:04:49.546Z,31.06
2019-06-15T16:07:19.201Z,31.04
2019-06-15T16:09:49.089Z,31.02
2019-06-15T16:15:28.222Z,30.93
2019-06-15T16:17:57.890Z,30.91
2019-06-15T16:20:27.544Z,30.91
2019-06-15T16:22:57.200Z,30.87
2019-06-15T16:25:27.658Z,30.82
2019-06-15T16:27:57.304Z,30.75
2019-06-15T16:31:01.947Z,30.66
2019-06-15T16:33:11.566Z,30.56
2019-06-15T16:35:40.938Z,30.48
2019-06-15T16:38:10.666Z,30.43
2019-06-15T16:40:40.675Z,30.39
2019-06-15T16:43:10.586Z,30.35
2019-06-15T16:45:40.313Z,30.31
2019-06-15T16:48:09.715Z,30.27
2019-06-15T16:50:39.432Z,30.22
2019-06-15T16:53:08.872Z,30.20
2019-06-15T16:55:38.600Z,30.18
2019-06-15T16:58:08.105Z,30.18
2019-06-15T17:00:37.923Z,30.19
2019-06-15T17:03:20.699Z,30.19
2019-06-15T17:05:39.140Z,30.20
2019-06-15T17:08:20.998Z,30.17
2019-06-15T17:10:58.446Z,30.13
2019-06-15T17:13:25.842Z,30.11
2019-06-15T17:15:57.165Z,30.09
2019-06-15T17:18:26.739Z,30.08
2019-06-15T17:21:07.008Z,30.06
2019-06-15T17:23:37.732Z,30.04
2019-06-15T17:26:08.629Z,30.01
2019-06-15T17:28:38.291Z,29.99
2019-06-15T17:31:07.980Z,30.01
2019-06-15T17:33:38.573Z,30.01
2019-06-15T17:36:08.447Z,29.99
2019-06-15T17:38:37.832Z,29.96
2019-06-15T17:41:07.228Z,29.90
2019-06-15T17:43:36.689Z,29.81
2019-06-15T17:46:07.210Z,29.73
2019-06-15T17:48:38.667Z,29.63
2019-06-15T17:51:09.898Z,29.55
2019-06-15T17:53:39.369Z,29.45
2019-06-15T17:56:09.198Z,29.35
2019-06-15T17:58:40.380Z,29.21
2019-06-15T18:01:09.988Z,29.09
2019-06-15T18:03:50.332Z,28.97
2019-06-15T18:06:10.608Z,28.83
2019-06-15T18:08:40.746Z,28.74
2019-06-15T18:11:10.282Z,28.62
2019-06-15T18:13:39.690Z,28.49
2019-06-15T18:16:12.374Z,28.39
2019-06-15T18:18:41.876Z,28.25
2019-06-15T18:21:11.294Z,28.11
2019-06-15T18:23:41.256Z,28.00
2019-06-15T18:26:10.685Z,27.86
2019-06-15T18:28:40.554Z,27.77
2019-06-15T18:31:10.203Z,27.66
2019-06-15T18:33:39.734Z,27.53
2019-06-15T18:36:09.146Z,27.43
2019-06-15T18:38:38.804Z,27.29
2019-06-15T18:41:08.212Z,27.17
2019-06-15T18:43:37.956Z,27.04
2019-06-15T18:46:07.407Z,26.93
2019-06-15T18:48:36.861Z,26.83
2019-06-15T18:51:07.576Z,26.75
2019-06-15T18:53:39.436Z,26.67
2019-06-15T18:56:09.278Z,26.58
2019-06-15T18:58:38.713Z,26.52
2019-06-15T19:01:08.281Z,26.43
2019-06-15T19:03:38.046Z,26.37
2019-06-15T19:06:07.539Z,26.31
2019-06-15T19:08:37.801Z,26.24
2019-06-15T19:11:07.687Z,26.21
2019-06-15T19:13:37.360Z,26.17
2019-06-15T19:16:07.171Z,26.12
2019-06-15T19:18:37.103Z,26.08
2019-06-15T19:21:07.111Z,26.01
2019-06-15T19:23:36.934Z,25.95
2019-06-15T19:26:06.623Z,25.91
2019-06-15T19:28:37.036Z,25.89
2019-06-15T19:31:06.788Z,25.86
2019-06-15T19:33:37.660Z,25.84
2019-06-15T19:36:08.342Z,25.81
2019-06-15T19:38:37.730Z,25.76
2019-06-15T19:41:07.231Z,25.72
2019-06-15T19:43:36.685Z,25.67
2019-06-15T19:46:06.724Z,25.64
2019-06-15T19:48:37.023Z,25.60
2019-06-15T19:51:09.393Z,25.53
2019-06-15T19:53:37.718Z,25.45
2019-06-15T19:56:07.135Z,25.36
2019-06-15T19:58:36.532Z,25.27
2019-06-15T20:01:06.783Z,25.19
2019-06-15T20:03:36.650Z,25.10
2019-06-15T20:06:06.673Z,25.01
2019-06-15T20:08:36.513Z,24.92
2019-06-15T20:11:07.264Z,24.84
2019-06-15T20:13:37.245Z,24.78
2019-06-15T20:16:07.823Z,24.70
2019-06-15T20:18:37.726Z,24.63
2019-06-15T20:21:07.506Z,24.58
2019-06-15T20:23:37.691Z,24.52
2019-06-15T20:26:07.465Z,24.50
2019-06-15T20:28:37.144Z,24.47
2019-06-15T20:31:06.855Z,24.45
2019-06-15T20:33:37.034Z,24.40
2019-06-15T20:36:06.953Z,24.38
2019-06-15T20:38:36.605Z,24.36
2019-06-15T20:41:07.369Z,24.31
2019-06-15T20:43:37.269Z,24.27
2019-06-15T20:46:07.580Z,24.22
2019-06-15T20:48:37.015Z,24.17
2019-06-15T20:51:10.151Z,24.12
2019-06-15T20:53:38.351Z,24.08
2019-06-15T20:56:08.028Z,24.06
2019-06-15T20:58:37.754Z,24.04
2019-06-15T21:01:07.326Z,24.01
2019-06-15T21:03:36.954Z,23.98
2019-06-15T21:06:07.029Z,23.98
2019-06-15T21:08:36.839Z,23.93
2019-06-15T21:11:07.082Z,23.89
2019-06-15T21:13:37.598Z,23.87
2019-06-15T21:16:07.339Z,23.82
2019-06-15T21:18:37.359Z,23.77
2019-06-15T21:21:07.185Z,23.72
2019-06-15T21:23:37.449Z,23.67
2019-06-15T21:26:07.230Z,23.62
2019-06-15T21:28:37.060Z,23.58
2019-06-15T21:31:07.243Z,23.54
2019-06-15T21:33:36.677Z,23.50
2019-06-15T21:36:06.463Z,23.47
2019-06-15T21:38:36.380Z,23.45
2019-06-15T21:41:07.819Z,23.44
2019-06-15T21:43:37.417Z,23.44
2019-06-15T21:46:06.807Z,23.47
2019-06-15T21:48:36.599Z,23.49
2019-06-15T21:51:07.899Z,23.47
2019-06-15T21:53:56.754Z,23.49
2019-06-15T21:56:29.075Z,23.48
2019-06-15T21:58:57.349Z,23.49
2019-06-15T22:01:37.914Z,23.49
2019-06-15T22:04:07.528Z,23.45
2019-06-15T22:06:37.691Z,23.47
2019-06-15T22:09:10.354Z,23.47
2019-06-15T22:11:39.931Z,23.49
2019-06-15T22:14:09.349Z,23.51
2019-06-15T22:16:38.773Z,23.52
2019-06-15T22:19:08.330Z,23.52
2019-06-15T22:21:38.778Z,23.53
2019-06-15T22:24:08.271Z,23.52
2019-06-15T22:26:37.805Z,23.51
2019-06-15T22:29:07.609Z,23.51
2019-06-15T22:31:37.164Z,23.49
2019-06-15T22:34:07.110Z,23.49
2019-06-15T22:36:37.088Z,23.51
2019-06-15T22:39:07.796Z,23.54
2019-06-15T22:41:37.262Z,23.55
2019-06-15T22:44:07.252Z,23.56
2019-06-15T22:46:37.303Z,23.56
2019-06-15T22:49:07.568Z,23.57
2019-06-15T22:51:37.473Z,23.56
2019-06-15T22:54:07.378Z,23.55
2019-06-15T22:56:38.996Z,23.55
2019-06-15T22:59:08.644Z,23.55
2019-06-15T23:01:38.090Z,23.55
2019-06-15T23:04:07.751Z,23.54
2019-06-15T23:06:42.927Z,23.53
2019-06-15T23:09:10.462Z,23.53
2019-06-15T23:11:40.117Z,23.53
2019-06-15T23:14:09.764Z,23.53
2019-06-15T23:16:39.162Z,23.53
2019-06-15T23:19:08.602Z,23.54
2019-06-15T23:21:38.045Z,23.53
2019-06-15T23:24:08.132Z,23.52
2019-06-15T23:26:38.485Z,23.50
2019-06-15T23:29:08.320Z,23.47
2019-06-15T23:31:38.374Z,23.46
2019-06-15T23:34:08.325Z,23.42
2019-06-15T23:36:52.787Z,23.40
2019-06-15T23:39:11.329Z,23.38
2019-06-15T23:41:41.017Z,23.36
2019-06-15T23:44:10.496Z,23.31
2019-06-15T23:46:40.176Z,23.27
2019-06-15T23:49:09.629Z,23.24
2019-06-15T23:51:39.342Z,23.23
2019-06-15T23:54:08.843Z,23.20
2019-06-15T23:56:38.884Z,23.18
2019-06-15T23:59:08.876Z,23.14
